Time;durP1;ratioP1;P1;durP2;ratioP2;P2;SDS_P1;SDS_P2;PMS_P1;PMS_P2;Temp;Humidity;BMP_temperature;BMP_pressure;BME280_temperature;BME280_humidity;BME280_pressure;Samples;Min_cycle;Max_cycle;Signal;HPM_P1;HPM_P2
2021/09/26 00:00:35;;;;;;;;;;;16.60;99.90;;;;;;4978464;28;20032;-74
2021/09/26 00:03:07;;;;;;;;;;;16.60;99.90;;;;;;5009014;28;20418;-73
2021/09/26 00:05:39;;;;;;;;;;;16.60;99.90;;;;;;5011722;28;20315;-73
2021/09/26 00:08:10;;;;;;;;;;;16.50;99.90;;;;;;4997190;28;19980;-73
2021/09/26 00:10:42;;;;;;;;;;;16.50;99.90;;;;;;5014679;28;19957;-73
2021/09/26 00:13:14;;;;;;;;;;;16.50;99.90;;;;;;4997307;28;19932;-73
2021/09/26 00:15:45;;;;;;;;;;;16.50;99.90;;;;;;5014334;28;19936;-74
2021/09/26 00:18:12;;;;;;;;;;;16.50;99.90;;;;;;5014495;28;20395;-74
2021/09/26 00:20:43;;;;;;;;;;;16.50;99.90;;;;;;5014297;28;19925;-72
2021/09/26 00:23:10;;;;;;;;;;;16.50;99.90;;;;;;4996557;28;20028;-73
2021/09/26 00:25:42;;;;;;;;;;;16.50;99.90;;;;;;4996536;28;20028;-73
2021/09/26 00:28:14;;;;;;;;;;;16.50;99.90;;;;;;5013415;28;20376;-73
2021/09/26 00:30:46;;;;;;;;;;;16.50;99.90;;;;;;4997406;28;20412;-73
2021/09/26 00:33:17;;;;;;;;;;;16.50;99.90;;;;;;4996656;28;19925;-73
2021/09/26 00:35:50;;;;;;;;;;;16.50;99.90;;;;;;4997098;28;19931;-73
2021/09/26 00:38:21;;;;;;;;;;;16.50;99.90;;;;;;4997516;28;19932;-73
2021/09/26 00:40:53;;;;;;;;;;;16.50;99.90;;;;;;4996502;28;19932;-73
2021/09/26 00:43:25;;;;;;;;;;;16.50;99.90;;;;;;4996395;28;19930;-73
2021/09/26 00:45:57;;;;;;;;;;;16.50;99.90;;;;;;4996251;28;19933;-73
2021/09/26 00:48:23;;;;;;;;;;;16.50;99.90;;;;;;5012640;28;19925;-73
2021/09/26 00:50:56;;;;;;;;;;;16.50;99.90;;;;;;4996423;28;19925;-73
2021/09/26 00:53:27;;;;;;;;;;;16.50;99.90;;;;;;4996069;28;20004;-73
2021/09/26 00:55:59;;;;;;;;;;;16.50;99.90;;;;;;4995946;28;19925;-73
2021/09/26 00:58:31;;;;;;;;;;;16.40;99.90;;;;;;4996413;28;20026;-73
2021/09/26 01:01:03;;;;;;;;;;;16.40;99.90;;;;;;4980383;28;20426;-73
2021/09/26 01:03:35;;;;;;;;;;;16.40;99.90;;;;;;4995630;28;19944;-73
2021/09/26 01:06:13;;;;;;;;;;;16.40;99.90;;;;;;5012791;28;19925;-73
2021/09/26 01:08:40;;;;;;;;;;;16.40;99.90;;;;;;4995564;28;19932;-73
2021/09/26 01:11:27;;;;;;;;;;;16.40;99.90;;;;;;4995350;28;19925;-73
2021/09/26 01:14:04;;;;;;;;;;;16.40;99.90;;;;;;4995272;28;19925;-73
2021/09/26 01:16:40;;;;;;;;;;;16.30;99.90;;;;;;4995634;28;19929;-73
2021/09/26 01:19:19;;;;;;;;;;;16.20;99.90;;;;;;4995847;28;19925;-73
2021/09/26 01:21:51;;;;;;;;;;;16.20;99.90;;;;;;4979391;28;19964;-73
2021/09/26 01:24:37;;;;;;;;;;;16.20;99.90;;;;;;4994710;28;20435;-73
2021/09/26 01:27:16;;;;;;;;;;;16.20;99.90;;;;;;4995936;28;20406;-73
2021/09/26 01:30:11;;;;;;;;;;;16.20;99.90;;;;;;5011615;28;20388;-73
2021/09/26 01:33:02;;;;;;;;;;;16.20;99.90;;;;;;4995948;28;20411;-73
2021/09/26 01:35:29;;;;;;;;;;;16.30;99.90;;;;;;4994567;28;19961;-73
2021/09/26 01:38:18;;;;;;;;;;;16.30;99.90;;;;;;4979883;28;20028;-73
2021/09/26 01:40:49;;;;;;;;;;;16.40;99.90;;;;;;4995246;28;19962;-74
2021/09/26 01:43:25;;;;;;;;;;;16.40;99.90;;;;;;4995243;28;19973;-73
2021/09/26 01:45:58;;;;;;;;;;;16.50;99.90;;;;;;4995748;28;20384;-73
2021/09/26 01:48:41;;;;;;;;;;;16.50;99.90;;;;;;5011669;28;19932;-72
2021/09/26 01:51:13;;;;;;;;;;;16.60;99.90;;;;;;5012695;28;20284;-72
2021/09/26 01:53:42;;;;;;;;;;;16.60;99.90;;;;;;4995289;28;19932;-73
2021/09/26 01:56:13;;;;;;;;;;;16.60;99.90;;;;;;5010533;28;19925;-73
2021/09/26 01:58:45;;;;;;;;;;;16.60;99.90;;;;;;4996160;28;19925;-73
2021/09/26 02:01:14;;;;;;;;;;;16.60;99.90;;;;;;4994951;28;19968;-73
2021/09/26 02:03:46;;;;;;;;;;;16.50;99.90;;;;;;4979769;28;19925;-73
2021/09/26 02:06:17;;;;;;;;;;;16.50;99.90;;;;;;4995675;28;20021;-73
2021/09/26 02:08:49;;;;;;;;;;;16.50;99.90;;;;;;4979570;28;19936;-73
2021/09/26 02:11:17;;;;;;;;;;;16.40;99.90;;;;;;4995164;28;20378;-73
2021/09/26 02:13:49;;;;;;;;;;;16.40;99.90;;;;;;4995798;28;19932;-73
2021/09/26 02:16:21;;;;;;;;;;;16.40;99.90;;;;;;4994398;28;19925;-73
2021/09/26 02:18:53;;;;;;;;;;;16.40;99.90;;;;;;5012577;28;19925;-73
2021/09/26 02:21:20;;;;;;;;;;;16.40;99.90;;;;;;5011164;28;19932;-73
2021/09/26 02:23:53;;;;;;;;;;;16.40;99.90;;;;;;5012435;28;19953;-73
2021/09/26 02:26:25;;;;;;;;;;;16.40;99.90;;;;;;4994468;28;20012;-73
2021/09/26 02:28:57;;;;;;;;;;;16.40;99.90;;;;;;4994903;28;20391;-73
2021/09/26 02:31:24;;;;;;;;;;;16.40;99.90;;;;;;5012109;28;19932;-73
2021/09/26 02:33:55;;;;;;;;;;;16.40;99.90;;;;;;5012324;28;19925;-73
2021/09/26 02:36:22;;;;;;;;;;;16.40;99.90;;;;;;5010468;28;20448;-73
2021/09/26 02:38:49;;;;;;;;;;;16.40;99.90;;;;;;5011185;28;19965;-73
2021/09/26 02:41:39;;;;;;;;;;;16.30;99.90;;;;;;5012171;28;19973;-73
2021/09/26 02:44:31;;;;;;;;;;;16.30;99.90;;;;;;4994121;28;20040;-72
2021/09/26 02:47:08;;;;;;;;;;;16.30;99.90;;;;;;5011207;28;19925;-73
2021/09/26 02:49:41;;;;;;;;;;;16.30;99.90;;;;;;5012124;28;19929;-73
2021/09/26 02:52:11;;;;;;;;;;;16.20;99.90;;;;;;5012514;28;20372;-73
2021/09/26 02:54:39;;;;;;;;;;;16.20;99.90;;;;;;4993912;28;19925;-73
2021/09/26 02:57:10;;;;;;;;;;;16.10;99.90;;;;;;5010755;28;20380;-73
2021/09/26 02:59:42;;;;;;;;;;;16.10;99.90;;;;;;5010867;28;19926;-73
2021/09/26 03:02:14;;;;;;;;;;;16.10;99.90;;;;;;4994638;28;20024;-73
2021/09/26 03:04:46;;;;;;;;;;;16.10;99.90;;;;;;4995031;28;19930;-73
2021/09/26 03:07:13;;;;;;;;;;;16.10;99.90;;;;;;4994532;28;19992;-73
2021/09/26 03:09:40;;;;;;;;;;;16.10;99.90;;;;;;4998364;28;20015;-73
2021/09/26 03:12:11;;;;;;;;;;;16.10;99.90;;;;;;4998211;28;19932;-73
2021/09/26 03:14:43;;;;;;;;;;;16.00;99.90;;;;;;4998486;28;20348;-73
2021/09/26 03:17:15;;;;;;;;;;;16.00;99.90;;;;;;4998130;28;19925;-73
2021/09/26 03:19:47;;;;;;;;;;;15.90;99.90;;;;;;4997964;28;19992;-73
2021/09/26 03:22:13;;;;;;;;;;;16.00;99.90;;;;;;5015655;28;20307;-73
2021/09/26 03:24:45;;;;;;;;;;;16.00;99.90;;;;;;4997290;28;19948;-73
2021/09/26 03:27:17;;;;;;;;;;;16.00;99.90;;;;;;5014224;28;19936;-73
2021/09/26 03:29:44;;;;;;;;;;;16.10;99.90;;;;;;4997636;28;20020;-73
2021/09/26 03:32:15;;;;;;;;;;;16.00;99.90;;;;;;5014187;28;19925;-73
2021/09/26 03:34:47;;;;;;;;;;;16.10;99.90;;;;;;4998033;28;19929;-72
2021/09/26 03:37:19;;;;;;;;;;;16.10;99.90;;;;;;4998440;28;19941;-73
2021/09/26 03:39:51;;;;;;;;;;;16.10;99.90;;;;;;4998443;28;20012;-73
2021/09/26 03:42:18;;;;;;;;;;;16.10;99.90;;;;;;5013970;28;20024;-73
2021/09/26 03:44:49;;;;;;;;;;;16.10;99.90;;;;;;4998229;28;19925;-72
2021/09/26 03:47:16;;;;;;;;;;;16.10;99.90;;;;;;4981444;28;20396;-72
2021/09/26 03:49:49;;;;;;;;;;;16.10;99.90;;;;;;4997467;28;20024;-72
2021/09/26 03:52:21;;;;;;;;;;;16.10;99.90;;;;;;5014048;28;20366;-72
2021/09/26 03:54:51;;;;;;;;;;;16.10;99.90;;;;;;4997079;28;20020;-73
2021/09/26 03:57:22;;;;;;;;;;;16.00;99.90;;;;;;4998307;28;19971;-72
2021/09/26 03:59:55;;;;;;;;;;;16.00;99.90;;;;;;5015059;28;20028;-73
2021/09/26 04:02:22;;;;;;;;;;;16.00;99.90;;;;;;4997248;28;19926;-72
2021/09/26 04:04:54;;;;;;;;;;;15.90;99.90;;;;;;4996946;28;19948;-72
2021/09/26 04:07:26;;;;;;;;;;;15.90;99.90;;;;;;5013786;28;19925;-72
2021/09/26 04:09:58;;;;;;;;;;;15.80;99.90;;;;;;4981776;28;19925;-72
2021/09/26 04:12:25;;;;;;;;;;;15.70;99.90;;;;;;4997071;28;20383;-72
2021/09/26 04:14:57;;;;;;;;;;;15.70;99.90;;;;;;5014361;28;20454;-72
2021/09/26 04:17:24;;;;;;;;;;;15.70;99.90;;;;;;5013366;28;19926;-72
2021/09/26 04:19:56;;;;;;;;;;;15.70;99.90;;;;;;5013985;28;20019;-72
2021/09/26 04:22:22;;;;;;;;;;;15.60;99.90;;;;;;5013432;28;20447;-72
2021/09/26 04:24:54;;;;;;;;;;;15.60;99.90;;;;;;4996573;28;20043;-72
2021/09/26 04:27:26;;;;;;;;;;;15.60;99.90;;;;;;5014066;28;19932;-73
2021/09/26 04:29:58;;;;;;;;;;;15.60;99.90;;;;;;5013141;28;19980;-72
2021/09/26 04:32:30;;;;;;;;;;;15.60;99.90;;;;;;5013049;28;20089;-72
2021/09/26 04:35:04;;;;;;;;;;;15.50;99.90;;;;;;5013720;28;19961;-72
2021/09/26 04:37:30;;;;;;;;;;;15.50;99.90;;;;;;5012824;28;19972;-73
2021/09/26 04:39:57;;;;;;;;;;;15.50;99.90;;;;;;4996347;28;20016;-72
2021/09/26 04:42:24;;;;;;;;;;;15.50;99.90;;;;;;4996803;28;20003;-72
2021/09/26 04:44:56;;;;;;;;;;;15.50;99.90;;;;;;4996040;28;20448;-72
2021/09/26 04:47:30;;;;;;;;;;;15.60;99.90;;;;;;4996409;28;19936;-72
2021/09/26 04:50:02;;;;;;;;;;;15.60;99.90;;;;;;4996364;28;19956;-72
2021/09/26 04:52:29;;;;;;;;;;;15.50;99.90;;;;;;5013860;28;19968;-72
2021/09/26 04:55:00;;;;;;;;;;;15.50;99.90;;;;;;5013576;28;19925;-72
2021/09/26 04:57:27;;;;;;;;;;;15.50;99.90;;;;;;4996127;28;20516;-72
2021/09/26 04:59:54;;;;;;;;;;;15.50;99.90;;;;;;4996035;28;20016;-72
2021/09/26 05:02:25;;;;;;;;;;;15.50;99.90;;;;;;4996050;28;20013;-72
2021/09/26 05:04:52;;;;;;;;;;;15.40;99.90;;;;;;4989233;28;19926;-72
2021/09/26 05:07:24;;;;;;;;;;;15.40;99.90;;;;;;4984117;28;19925;-72
2021/09/26 05:09:55;;;;;;;;;;;15.40;99.90;;;;;;4993311;28;20270;-72
2021/09/26 05:12:22;;;;;;;;;;;15.30;99.90;;;;;;4960251;28;19925;-72
2021/09/26 05:14:56;;;;;;;;;;;15.30;99.90;;;;;;4976521;28;19926;-72
2021/09/26 05:17:28;;;;;;;;;;;15.30;99.90;;;;;;4993197;28;20028;-72
2021/09/26 05:20:00;;;;;;;;;;;15.30;99.90;;;;;;4993368;28;20300;-72
2021/09/26 05:22:32;;;;;;;;;;;15.30;99.90;;;;;;4975862;28;20394;-72
2021/09/26 05:25:05;;;;;;;;;;;15.30;99.90;;;;;;4992974;28;19969;-72
2021/09/26 05:27:37;;;;;;;;;;;15.40;99.90;;;;;;4993401;28;19973;-72
2021/09/26 05:30:09;;;;;;;;;;;15.40;99.90;;;;;;4975073;28;19926;-72
2021/09/26 05:32:44;;;;;;;;;;;15.40;99.90;;;;;;4973602;28;19926;-72
2021/09/26 05:35:16;;;;;;;;;;;15.50;99.90;;;;;;4998661;28;19932;-73
2021/09/26 05:37:48;;;;;;;;;;;15.50;99.90;;;;;;4978150;28;20025;-72
2021/09/26 05:40:14;;;;;;;;;;;15.50;99.90;;;;;;4975322;28;20016;-73
2021/09/26 05:42:46;;;;;;;;;;;15.50;99.90;;;;;;4975852;28;19930;-72
2021/09/26 05:45:18;;;;;;;;;;;15.50;99.90;;;;;;4992496;28;19930;-72
2021/09/26 05:47:50;;;;;;;;;;;15.50;99.90;;;;;;4960261;28;19926;-72
2021/09/26 05:50:22;;;;;;;;;;;15.50;99.90;;;;;;4975551;28;19925;-72
2021/09/26 05:52:49;;;;;;;;;;;15.50;99.90;;;;;;4975428;28;19930;-72
2021/09/26 05:55:16;;;;;;;;;;;15.50;99.90;;;;;;4992340;28;20036;-72
2021/09/26 05:57:48;;;;;;;;;;;15.60;99.90;;;;;;4977402;28;19931;-72
2021/09/26 06:00:17;;;;;;;;;;;15.50;99.90;;;;;;4975997;28;19961;-72
2021/09/26 06:02:49;;;;;;;;;;;15.60;99.90;;;;;;4992900;28;19973;-72
2021/09/26 06:05:16;;;;;;;;;;;15.60;99.90;;;;;;4989327;28;20020;-74
2021/09/26 06:07:47;;;;;;;;;;;15.60;99.90;;;;;;4976440;28;20295;-72
2021/09/26 06:10:14;;;;;;;;;;;15.70;99.90;;;;;;4974887;28;20032;-72
2021/09/26 06:12:46;;;;;;;;;;;15.70;99.90;;;;;;4963127;28;19980;-72
2021/09/26 06:15:13;;;;;;;;;;;15.70;99.90;;;;;;4993784;28;19951;-73
2021/09/26 06:17:45;;;;;;;;;;;15.80;99.90;;;;;;4995239;28;19959;-73
2021/09/26 06:20:12;;;;;;;;;;;15.80;99.90;;;;;;4977861;28;20028;-72
2021/09/26 06:22:43;;;;;;;;;;;15.90;99.90;;;;;;5002651;28;20427;-72
2021/09/26 06:25:10;;;;;;;;;;;15.90;99.90;;;;;;5010325;28;19984;-72
2021/09/26 06:27:42;;;;;;;;;;;15.90;99.90;;;;;;4993535;28;19998;-71
2021/09/26 06:30:15;;;;;;;;;;;15.90;99.90;;;;;;4993047;28;19930;-72
2021/09/26 06:32:48;;;;;;;;;;;15.90;99.90;;;;;;4990723;28;19933;-76
2021/09/26 06:35:15;;;;;;;;;;;16.00;99.90;;;;;;4974261;28;19926;-72
2021/09/26 06:37:42;;;;;;;;;;;16.00;99.90;;;;;;4990571;28;19933;-72
2021/09/26 06:40:14;;;;;;;;;;;16.00;99.90;;;;;;4978751;28;20021;-72
2021/09/26 06:42:40;;;;;;;;;;;16.00;99.90;;;;;;5012611;28;19926;-72
2021/09/26 06:45:12;;;;;;;;;;;16.10;99.90;;;;;;5002857;28;19926;-71
2021/09/26 06:47:44;;;;;;;;;;;16.10;99.90;;;;;;4979102;28;19965;-72
2021/09/26 06:50:15;;;;;;;;;;;16.10;99.90;;;;;;4989646;28;19931;-72
2021/09/26 06:52:42;;;;;;;;;;;16.10;99.90;;;;;;5015162;28;20016;-72
2021/09/26 06:55:14;;;;;;;;;;;16.10;99.90;;;;;;4987686;28;19925;-73
2021/09/26 06:57:40;;;;;;;;;;;16.10;99.90;;;;;;4995150;28;20381;-72
2021/09/26 07:00:09;;;;;;;;;;;16.10;99.90;;;;;;4997018;28;20012;-72
2021/09/26 07:02:43;;;;;;;;;;;16.10;99.90;;;;;;4997705;28;20024;-72
2021/09/26 07:05:15;;;;;;;;;;;16.10;99.90;;;;;;4995913;28;19988;-73
2021/09/26 07:07:46;;;;;;;;;;;16.10;99.90;;;;;;4996392;28;20375;-72
2021/09/26 07:10:13;;;;;;;;;;;16.10;99.90;;;;;;4979643;28;19980;-72
2021/09/26 07:12:46;;;;;;;;;;;16.10;99.90;;;;;;4997183;28;19925;-72
2021/09/26 07:15:13;;;;;;;;;;;16.10;99.90;;;;;;4996573;28;19930;-72
2021/09/26 07:17:39;;;;;;;;;;;16.20;99.90;;;;;;4997091;28;19925;-72
2021/09/26 07:20:11;;;;;;;;;;;16.20;99.90;;;;;;4997546;28;19983;-73
2021/09/26 07:22:43;;;;;;;;;;;16.30;99.90;;;;;;4996558;28;19926;-74
2021/09/26 07:25:15;;;;;;;;;;;16.40;99.90;;;;;;4996274;28;19929;-73
2021/09/26 07:27:47;;;;;;;;;;;16.40;99.90;;;;;;5014327;28;19960;-72
2021/09/26 07:30:19;;;;;;;;;;;16.50;99.90;;;;;;4984843;28;19933;-72
2021/09/26 07:32:51;;;;;;;;;;;16.60;99.90;;;;;;4979664;28;19926;-72
2021/09/26 07:35:18;;;;;;;;;;;16.60;99.90;;;;;;4994170;28;19926;-72
2021/09/26 07:37:45;;;;;;;;;;;16.70;99.90;;;;;;4994486;28;19926;-71
2021/09/26 07:40:17;;;;;;;;;;;16.80;99.90;;;;;;4976830;28;20028;-73
2021/09/26 07:42:49;;;;;;;;;;;16.80;99.90;;;;;;4978610;28;20028;-72
2021/09/26 07:45:16;;;;;;;;;;;16.90;99.90;;;;;;4998348;28;19925;-72
2021/09/26 07:47:43;;;;;;;;;;;16.90;99.90;;;;;;4989418;28;19937;-74
2021/09/26 07:50:10;;;;;;;;;;;17.00;99.90;;;;;;4985575;28;19926;-72
2021/09/26 07:52:37;;;;;;;;;;;17.00;99.90;;;;;;5013978;28;19971;-72
2021/09/26 07:55:10;;;;;;;;;;;17.10;99.90;;;;;;4996486;28;20016;-72
2021/09/26 07:57:41;;;;;;;;;;;17.20;99.90;;;;;;5013772;28;19980;-72
2021/09/26 08:00:08;;;;;;;;;;;17.30;99.90;;;;;;5012946;28;19925;-72
2021/09/26 08:02:40;;;;;;;;;;;17.40;99.90;;;;;;5013067;28;19932;-72
2021/09/26 08:05:12;;;;;;;;;;;17.50;99.90;;;;;;4997232;28;20380;-72
2021/09/26 08:07:39;;;;;;;;;;;17.50;99.90;;;;;;4996641;28;20024;-72
2021/09/26 08:10:10;;;;;;;;;;;17.60;99.90;;;;;;4997007;28;19925;-72
2021/09/26 08:12:42;;;;;;;;;;;17.70;99.90;;;;;;4978024;28;20009;-72
2021/09/26 08:15:09;;;;;;;;;;;17.80;99.90;;;;;;4993139;28;19969;-72
2021/09/26 08:17:36;;;;;;;;;;;17.90;99.90;;;;;;4977299;28;19926;-74
2021/09/26 08:20:08;;;;;;;;;;;18.00;99.90;;;;;;4977956;28;20380;-72
2021/09/26 08:22:40;;;;;;;;;;;18.10;99.90;;;;;;4994640;28;20012;-72
2021/09/26 08:25:07;;;;;;;;;;;18.30;99.90;;;;;;4977057;28;20020;-73
2021/09/26 08:27:38;;;;;;;;;;;18.40;99.90;;;;;;4977853;28;20012;-72
2021/09/26 08:30:10;;;;;;;;;;;18.40;99.90;;;;;;4976858;28;20020;-72
2021/09/26 08:32:42;;;;;;;;;;;18.60;99.90;;;;;;4977930;28;19932;-72
2021/09/26 08:35:09;;;;;;;;;;;18.70;99.90;;;;;;4993891;28;19929;-72
2021/09/26 08:37:36;;;;;;;;;;;18.90;99.90;;;;;;4976314;28;19930;-73
2021/09/26 08:40:08;;;;;;;;;;;19.00;99.90;;;;;;4977266;28;19936;-74
2021/09/26 08:42:36;;;;;;;;;;;19.10;99.90;;;;;;4976227;28;20020;-72
2021/09/26 08:45:09;;;;;;;;;;;19.20;99.90;;;;;;4976628;28;19926;-72
2021/09/26 08:47:39;;;;;;;;;;;19.30;99.90;;;;;;4976125;28;20025;-73
2021/09/26 08:50:13;;;;;;;;;;;19.40;99.90;;;;;;4977452;28;19977;-72
2021/09/26 08:52:45;;;;;;;;;;;19.60;99.90;;;;;;4994532;28;20367;-73
2021/09/26 08:55:17;;;;;;;;;;;19.70;99.90;;;;;;4976326;28;19953;-72
2021/09/26 08:57:44;;;;;;;;;;;19.80;99.90;;;;;;4975794;28;20020;-72
2021/09/26 09:00:16;;;;;;;;;;;19.90;99.90;;;;;;4976523;28;19936;-72
2021/09/26 09:02:48;;;;;;;;;;;20.10;99.90;;;;;;4973138;28;19984;-72
2021/09/26 09:05:26;;;;;;;;;;;20.20;99.90;;;;;;4990411;28;20021;-72
2021/09/26 09:08:08;;;;;;;;;;;20.30;99.90;;;;;;4987538;28;19988;-72
2021/09/26 09:10:45;;;;;;;;;;;20.40;99.90;;;;;;4987178;28;20033;-72
2021/09/26 09:13:12;;;;;;;;;;;20.50;99.90;;;;;;4977291;28;19925;-74
2021/09/26 09:15:51;;;;;;;;;;;20.60;99.90;;;;;;4972843;28;19933;-72
2021/09/26 09:18:23;;;;;;;;;;;20.60;99.90;;;;;;4974058;28;20400;-72
2021/09/26 09:20:51;;;;;;;;;;;20.80;99.90;;;;;;4976637;28;20687;-73
2021/09/26 09:23:23;;;;;;;;;;;20.90;99.90;;;;;;4994413;28;19980;-72
2021/09/26 09:25:56;;;;;;;;;;;21.00;99.90;;;;;;4991690;28;19925;-72
2021/09/26 09:28:27;;;;;;;;;;;21.10;99.90;;;;;;4974693;28;20392;-73
2021/09/26 09:31:03;;;;;;;;;;;21.20;99.90;;;;;;4983061;28;19968;-71
2021/09/26 09:33:38;;;;;;;;;;;21.30;99.90;;;;;;4974909;28;19929;-71
2021/09/26 09:36:18;;;;;;;;;;;21.50;99.90;;;;;;4969697;28;19929;-71
2021/09/26 09:38:45;;;;;;;;;;;21.60;99.90;;;;;;4979008;28;19930;-71
2021/09/26 09:41:37;;;;;;;;;;;21.80;99.90;;;;;;4991983;28;20031;-71
2021/09/26 09:44:05;;;;;;;;;;;21.90;99.90;;;;;;4969818;28;19981;-72
2021/09/26 09:46:33;;;;;;;;;;;22.10;99.90;;;;;;4973138;28;19972;-71
2021/09/26 09:49:25;;;;;;;;;;;22.30;99.90;;;;;;4986588;28;20001;-71
2021/09/26 09:51:55;;;;;;;;;;;22.30;99.90;;;;;;4975609;28;20199;-71
2021/09/26 09:54:35;;;;;;;;;;;22.40;99.90;;;;;;4957179;28;19926;-71
2021/09/26 09:57:09;;;;;;;;;;;22.50;99.90;;;;;;4977345;28;20020;-72
2021/09/26 09:59:36;;;;;;;;;;;22.50;99.90;;;;;;4970848;28;20028;-72
2021/09/26 10:02:08;;;;;;;;;;;22.50;99.90;;;;;;4972247;28;19931;-72
2021/09/26 10:04:39;;;;;;;;;;;22.40;99.90;;;;;;4984709;28;20396;-72
2021/09/26 10:07:19;;;;;;;;;;;22.30;99.90;;;;;;4972696;28;19940;-73
2021/09/26 10:09:51;;;;;;;;;;;22.30;99.90;;;;;;4974291;28;20363;-72
2021/09/26 10:12:27;;;;;;;;;;;22.30;99.90;;;;;;4973672;28;20355;-73
2021/09/26 10:14:55;;;;;;;;;;;22.20;99.90;;;;;;4990029;28;20024;-71
2021/09/26 10:17:22;;;;;;;;;;;22.10;99.90;;;;;;4982904;28;20447;-73
2021/09/26 10:19:49;;;;;;;;;;;22.10;99.90;;;;;;4989221;28;19932;-73
2021/09/26 10:22:21;;;;;;;;;;;22.20;99.90;;;;;;4969626;28;20028;-72
2021/09/26 10:24:55;;;;;;;;;;;22.20;99.90;;;;;;4966648;28;19969;-72
2021/09/26 10:27:22;;;;;;;;;;;22.20;99.90;;;;;;4985977;28;19961;-73
2021/09/26 10:30:04;;;;;;;;;;;22.20;99.90;;;;;;4990272;28;19961;-73
2021/09/26 10:32:31;;;;;;;;;;;22.20;99.90;;;;;;4990569;28;19969;-73
2021/09/26 10:34:58;;;;;;;;;;;22.20;99.90;;;;;;4976504;28;19933;-72
2021/09/26 10:37:30;;;;;;;;;;;22.20;99.90;;;;;;4975618;28;20219;-73
2021/09/26 10:39:57;;;;;;;;;;;22.30;99.90;;;;;;4990968;28;20020;-72
2021/09/26 10:42:25;;;;;;;;;;;22.30;99.90;;;;;;4991843;28;20020;-73
2021/09/26 10:44:59;;;;;;;;;;;22.40;99.90;;;;;;4999220;28;20304;-72
2021/09/26 10:47:27;;;;;;;;;;;22.50;99.90;;;;;;4981387;28;20315;-73
2021/09/26 10:50:02;;;;;;;;;;;22.50;99.90;;;;;;4968076;28;19926;-72
2021/09/26 10:52:37;;;;;;;;;;;22.50;99.90;;;;;;4983058;28;20403;-72
2021/09/26 10:55:21;;;;;;;;;;;22.50;99.90;;;;;;4957689;28;19934;-72
2021/09/26 10:57:49;;;;;;;;;;;22.50;99.90;;;;;;4983523;28;20036;-72
2021/09/26 11:00:35;;;;;;;;;;;22.50;99.90;;;;;;5010429;28;19929;-72
2021/09/26 11:03:04;;;;;;;;;;;22.50;99.90;;;;;;4994248;28;20385;-72
2021/09/26 11:05:39;;;;;;;;;;;22.50;99.90;;;;;;5009997;28;19926;-72
2021/09/26 11:08:13;;;;;;;;;;;22.60;99.90;;;;;;5004431;28;20024;-72
2021/09/26 11:10:46;;;;;;;;;;;22.80;99.90;;;;;;4988184;28;21436;-71
2021/09/26 11:13:19;;;;;;;;;;;22.80;99.90;;;;;;4956665;28;20308;-72
2021/09/26 11:15:57;;;;;;;;;;;22.80;99.90;;;;;;4983947;28;20037;-72
2021/09/26 11:18:42;;;;;;;;;;;22.80;99.90;;;;;;4974106;28;20028;-73
2021/09/26 11:21:33;;;;;;;;;;;22.80;99.90;;;;;;4990441;28;19926;-73
2021/09/26 11:24:06;;;;;;;;;;;22.90;99.90;;;;;;4985484;28;19925;-73
2021/09/26 11:26:51;;;;;;;;;;;23.00;99.90;;;;;;5009455;28;19972;-73
2021/09/26 11:29:23;;;;;;;;;;;23.00;99.90;;;;;;4992165;28;19934;-73
2021/09/26 11:31:51;;;;;;;;;;;23.10;99.90;;;;;;5004918;28;20008;-74
2021/09/26 11:34:43;;;;;;;;;;;23.20;99.90;;;;;;4993822;28;20028;-73
2021/09/26 11:37:11;;;;;;;;;;;23.20;99.90;;;;;;4988945;28;19932;-73
2021/09/26 11:39:38;;;;;;;;;;;23.20;99.90;;;;;;4993541;28;20362;-73
2021/09/26 11:42:25;;;;;;;;;;;23.30;99.90;;;;;;4962491;28;20024;-73
2021/09/26 11:44:52;;;;;;;;;;;23.30;99.90;;;;;;4984663;28;20149;-73
2021/09/26 11:47:19;;;;;;;;;;;23.20;99.90;;;;;;4988680;28;19987;-73
2021/09/26 11:49:51;;;;;;;;;;;23.20;99.90;;;;;;4981866;28;19933;-72
2021/09/26 11:52:23;;;;;;;;;;;23.20;99.90;;;;;;4992805;28;19926;-70
2021/09/26 11:54:59;;;;;;;;;;;23.40;99.90;;;;;;4966477;28;19925;-73
2021/09/26 11:57:31;;;;;;;;;;;23.30;99.90;;;;;;4990452;28;19996;-73
2021/09/26 12:00:04;;;;;;;;;;;23.30;99.90;;;;;;4965514;28;19925;-73
2021/09/26 12:02:34;;;;;;;;;;;23.20;99.90;;;;;;4981217;28;19952;-73
2021/09/26 12:05:01;;;;;;;;;;;23.20;99.90;;;;;;4980965;28;19929;-74
2021/09/26 12:07:33;;;;;;;;;;;23.30;99.90;;;;;;4979491;28;19969;-74
2021/09/26 12:10:00;;;;;;;;;;;23.30;99.90;;;;;;5011687;28;19930;-73
2021/09/26 12:12:29;;;;;;;;;;;23.30;99.90;;;;;;4975994;28;19930;-74
2021/09/26 12:15:08;;;;;;;;;;;23.20;99.90;;;;;;4981110;28;19926;-73
2021/09/26 12:17:39;;;;;;;;;;;23.10;99.90;;;;;;4978545;28;19988;-73
2021/09/26 12:20:10;;;;;;;;;;;23.20;99.90;;;;;;4977651;28;19925;-74
2021/09/26 12:22:38;;;;;;;;;;;23.10;99.90;;;;;;4993767;28;19936;-74
2021/09/26 12:25:11;;;;;;;;;;;23.20;99.90;;;;;;4977576;28;20352;-73
2021/09/26 12:27:54;;;;;;;;;;;23.30;99.90;;;;;;4975466;28;19926;-74
2021/09/26 12:30:24;;;;;;;;;;;23.40;99.90;;;;;;4981447;28;19930;-71
2021/09/26 12:33:08;;;;;;;;;;;23.50;99.90;;;;;;5002605;28;19972;-73
2021/09/26 12:35:35;;;;;;;;;;;23.60;99.90;;;;;;4980433;28;20285;-73
2021/09/26 12:38:06;;;;;;;;;;;23.60;99.90;;;;;;4979942;28;19976;-74
2021/09/26 12:40:35;;;;;;;;;;;23.70;99.90;;;;;;4991639;28;19933;-74
2021/09/26 12:43:13;;;;;;;;;;;23.70;99.90;;;;;;4988003;28;19980;-73
2021/09/26 12:45:45;;;;;;;;;;;23.80;99.90;;;;;;4984895;28;19937;-73
2021/09/26 12:48:13;;;;;;;;;;;23.70;99.90;;;;;;4984593;28;20008;-74
2021/09/26 12:50:47;;;;;;;;;;;23.60;99.90;;;;;;4981014;28;19940;-74
2021/09/26 12:53:16;;;;;;;;;;;23.40;99.90;;;;;;4977982;28;20398;-74
2021/09/26 12:55:43;;;;;;;;;;;23.40;99.90;;;;;;4977923;28;19973;-74
2021/09/26 12:58:16;;;;;;;;;;;23.30;99.90;;;;;;4990940;28;20020;-74
2021/09/26 13:00:51;;;;;;;;;;;23.20;99.90;;;;;;4972451;28;20020;-74
2021/09/26 13:03:44;;;;;;;;;;;23.20;99.90;;;;;;4986054;28;19930;-74
2021/09/26 13:06:26;;;;;;;;;;;23.20;99.90;;;;;;4997043;28;19930;-74
2021/09/26 13:08:58;;;;;;;;;;;23.20;99.90;;;;;;4996608;28;19934;-73
2021/09/26 13:11:35;;;;;;;;;;;23.00;99.90;;;;;;4980049;28;20023;-73
2021/09/26 13:14:10;;;;;;;;;;;23.00;99.90;;;;;;4963871;28;20407;-73
2021/09/26 13:16:46;;;;;;;;;;;23.00;99.90;;;;;;4994501;28;19957;-73
2021/09/26 13:19:24;;;;;;;;;;;23.10;99.90;;;;;;4992922;28;19932;-73
2021/09/26 13:22:25;;;;;;;;;;;23.10;99.90;;;;;;4977218;28;20017;-72
2021/09/26 13:25:00;;;;;;;;;;;23.10;99.90;;;;;;4961133;28;19969;-73
2021/09/26 13:27:37;;;;;;;;;;;23.00;99.90;;;;;;4974671;28;20388;-73
2021/09/26 13:30:15;;;;;;;;;;;22.90;99.90;;;;;;4974126;28;20026;-73
2021/09/26 13:32:55;;;;;;;;;;;22.80;99.90;;;;;;4975635;28;19981;-73
2021/09/26 13:35:29;;;;;;;;;;;22.70;99.90;;;;;;4974066;28;20013;-73
2021/09/26 13:38:13;;;;;;;;;;;22.60;99.90;;;;;;4974248;28;19926;-73
2021/09/26 13:40:47;;;;;;;;;;;22.50;99.90;;;;;;4974108;28;19934;-73
2021/09/26 13:43:28;;;;;;;;;;;22.50;99.90;;;;;;4974995;28;19929;-73
2021/09/26 13:46:00;;;;;;;;;;;22.50;99.90;;;;;;4989408;28;19932;-73
2021/09/26 13:48:28;;;;;;;;;;;22.50;99.90;;;;;;4972988;28;19929;-73
2021/09/26 13:50:56;;;;;;;;;;;22.40;99.90;;;;;;4989625;28;20436;-72
2021/09/26 13:53:27;;;;;;;;;;;22.40;99.90;;;;;;4993343;28;20400;-73
2021/09/26 13:55:59;;;;;;;;;;;22.40;99.90;;;;;;4991124;28;19926;-73
2021/09/26 13:58:27;;;;;;;;;;;22.30;99.90;;;;;;4958017;28;20709;-73
2021/09/26 14:00:54;;;;;;;;;;;22.30;99.90;;;;;;4958264;28;19925;-73
2021/09/26 14:03:21;;;;;;;;;;;22.20;99.90;;;;;;4988366;28;20016;-73
2021/09/26 14:05:53;;;;;;;;;;;22.20;99.90;;;;;;4968832;28;19942;-73
2021/09/26 14:08:20;;;;;;;;;;;22.10;99.90;;;;;;4972584;28;19975;-73
2021/09/26 14:10:51;;;;;;;;;;;22.10;99.90;;;;;;4974903;28;19938;-73
2021/09/26 14:13:22;;;;;;;;;;;22.10;99.90;;;;;;4988420;28;19932;-73
2021/09/26 14:15:54;;;;;;;;;;;22.00;99.90;;;;;;4993724;28;20001;-73
2021/09/26 14:18:27;;;;;;;;;;;22.00;99.90;;;;;;5011200;28;19926;-74
2021/09/26 14:20:54;;;;;;;;;;;22.10;99.90;;;;;;4993234;28;20012;-73
2021/09/26 14:23:27;;;;;;;;;;;22.10;99.90;;;;;;4991900;28;20453;-73
2021/09/26 14:26:00;;;;;;;;;;;22.10;99.90;;;;;;4977730;28;20032;-74
2021/09/26 14:28:34;;;;;;;;;;;22.20;99.90;;;;;;4994317;28;20662;-73
2021/09/26 14:31:08;;;;;;;;;;;22.30;99.90;;;;;;4992211;28;20020;-73
2021/09/26 14:33:41;;;;;;;;;;;22.40;99.90;;;;;;4994231;28;20020;-73
2021/09/26 14:36:14;;;;;;;;;;;22.50;99.90;;;;;;4992925;28;19925;-73
2021/09/26 14:38:45;;;;;;;;;;;22.60;99.90;;;;;;5003710;28;19930;-73
2021/09/26 14:41:18;;;;;;;;;;;22.60;99.90;;;;;;5010971;28;20012;-74
2021/09/26 14:43:45;;;;;;;;;;;22.60;99.90;;;;;;4993918;28;19925;-73